createdAt,value
2018-03-23T00:01:56.528Z,7.00
2018-03-23T00:04:24.052Z,6.77
2018-03-23T00:06:51.560Z,6.03
2018-03-23T00:09:19.083Z,5.80
2018-03-23T00:11:46.591Z,5.30
2018-03-23T00:14:14.875Z,6.10
2018-03-23T00:16:43.152Z,6.23
2018-03-23T00:19:11.452Z,6.03
2018-03-23T00:21:38.959Z,7.10
2018-03-23T00:24:06.627Z,6.40
2018-03-23T00:26:34.135Z,6.40
2018-03-23T00:29:01.659Z,5.70
2018-03-23T00:31:29.167Z,5.93
2018-03-23T00:33:56.697Z,5.90
2018-03-23T00:36:24.973Z,5.90
2018-03-23T00:38:53.260Z,5.90
2018-03-23T00:41:20.763Z,6.10
2018-03-23T00:43:48.284Z,5.03
2018-03-23T00:46:15.839Z,6.37
2018-03-23T00:48:43.364Z,5.00
2018-03-23T00:51:10.869Z,6.03
2018-03-23T00:53:38.382Z,5.90
2018-03-23T00:56:05.898Z,5.50
2018-03-23T00:58:33.433Z,5.13
2018-03-23T01:01:01.710Z,4.53
2018-03-23T01:03:30.013Z,5.50
2018-03-23T01:05:57.526Z,5.50
2018-03-23T01:08:25.824Z,5.50
2018-03-23T01:10:54.329Z,6.13
2018-03-23T01:13:21.878Z,6.20
2018-03-23T01:15:49.424Z,6.97
2018-03-23T01:18:17.718Z,5.87
2018-03-23T01:20:45.245Z,6.80
2018-03-23T01:23:12.753Z,6.03
2018-03-23T01:25:40.367Z,6.30
2018-03-23T01:28:07.894Z,6.70
2018-03-23T01:30:35.420Z,6.00
2018-03-23T01:33:02.942Z,5.70
2018-03-23T01:35:30.464Z,5.57
2018-03-23T01:37:57.968Z,6.13
2018-03-23T01:40:26.260Z,6.13
2018-03-23T01:42:54.539Z,5.43
2018-03-23T01:45:22.828Z,5.50
2018-03-23T01:47:50.348Z,5.70
2018-03-23T01:50:17.872Z,6.00
2018-03-23T01:52:45.392Z,6.27
2018-03-23T01:55:13.688Z,5.33
2018-03-23T01:57:41.196Z,5.80
2018-03-23T02:00:08.737Z,6.07
2018-03-23T02:02:36.252Z,6.20
2018-03-23T02:05:04.559Z,6.70
2018-03-23T02:07:32.067Z,6.77
2018-03-23T02:09:59.594Z,6.90
2018-03-23T02:12:27.100Z,6.10
2018-03-23T02:14:55.390Z,6.57
2018-03-23T02:17:23.676Z,5.83
2018-03-23T02:19:51.197Z,7.30
2018-03-23T02:22:18.725Z,7.50
2018-03-23T02:24:46.261Z,6.37
2018-03-23T02:27:13.781Z,6.50
2018-03-23T02:29:41.303Z,5.80
2018-03-23T02:32:08.804Z,6.60
2018-03-23T02:34:36.313Z,5.90
2018-03-23T02:37:03.846Z,5.00
2018-03-23T02:39:32.127Z,5.90
2018-03-23T02:41:59.652Z,5.67
2018-03-23T02:44:27.175Z,6.20
2018-03-23T02:46:54.700Z,5.30
2018-03-23T02:49:22.981Z,5.50
2018-03-23T02:51:51.268Z,6.73
2018-03-23T02:54:18.777Z,5.37
2018-03-23T02:56:46.300Z,5.37
2018-03-23T02:59:13.819Z,6.07
2018-03-23T03:01:42.111Z,6.50
2018-03-23T03:04:10.394Z,5.83
2018-03-23T03:06:38.691Z,5.70
2018-03-23T03:09:06.268Z,5.60
2018-03-23T03:11:33.788Z,6.17
2018-03-23T03:14:02.068Z,4.80
2018-03-23T03:16:30.374Z,5.87
2018-03-23T03:18:57.894Z,5.03
2018-03-23T03:21:26.193Z,5.50
2018-03-23T03:23:53.700Z,5.00
2018-03-23T03:26:21.236Z,5.30
2018-03-23T03:28:48.753Z,5.00
2018-03-23T03:31:17.050Z,5.00
2018-03-23T03:33:44.572Z,5.03
2018-03-23T03:36:12.116Z,4.93
2018-03-23T03:38:39.629Z,6.20
2018-03-23T03:41:07.152Z,5.20
2018-03-23T03:43:34.672Z,5.10
2018-03-23T03:46:02.202Z,5.90
2018-03-23T03:48:30.473Z,5.60
2018-03-23T03:50:58.750Z,5.33
2018-03-23T03:53:27.090Z,5.27
2018-03-23T03:55:54.584Z,4.63
2018-03-23T03:58:22.876Z,4.20
2018-03-23T04:00:50.393Z,4.83
2018-03-23T04:03:17.918Z,4.97
2018-03-23T04:05:45.529Z,4.60
2018-03-23T04:08:13.053Z,3.93
2018-03-23T04:10:40.559Z,4.93
2018-03-23T04:13:08.854Z,4.87
2018-03-23T04:15:36.359Z,4.40
2018-03-23T04:18:03.890Z,4.27
2018-03-23T04:20:31.404Z,4.37
2018-03-23T04:22:58.932Z,4.70
2018-03-23T04:25:26.445Z,4.43
2018-03-23T04:27:54.735Z,4.17
2018-03-23T04:30:22.244Z,4.77
2018-03-23T04:32:49.773Z,4.00
2018-03-23T04:35:17.284Z,3.50
2018-03-23T04:37:44.804Z,4.33
2018-03-23T04:40:12.313Z,4.07
2018-03-23T04:42:40.600Z,4.63
2018-03-23T04:45:08.877Z,4.83
2018-03-23T04:47:37.168Z,4.20
2018-03-23T04:50:04.688Z,3.93
2018-03-23T04:52:32.220Z,4.00
2018-03-23T04:54:59.736Z,4.17
2018-03-23T04:57:28.026Z,4.00
2018-03-23T04:59:55.551Z,4.47
2018-03-23T05:02:23.859Z,4.07
2018-03-23T05:04:51.386Z,5.07
2018-03-23T05:07:18.938Z,4.40
2018-03-23T05:09:46.459Z,4.50
2018-03-23T05:12:13.982Z,3.70
2018-03-23T05:14:42.273Z,3.30
2018-03-23T05:17:09.790Z,4.60
2018-03-23T05:19:37.326Z,4.30
2018-03-23T05:22:04.847Z,4.40
2018-03-23T05:24:32.382Z,3.90
2018-03-23T05:26:59.900Z,4.60
2018-03-23T05:29:27.433Z,4.80
2018-03-23T05:31:55.705Z,4.33
2018-03-23T05:34:23.993Z,4.13
2018-03-23T05:36:51.510Z,4.30
2018-03-23T05:39:19.032Z,4.40
2018-03-23T05:41:46.544Z,4.30
2018-03-23T05:44:14.858Z,4.27
2018-03-23T05:46:42.372Z,4.50
2018-03-23T05:49:09.902Z,4.00
2018-03-23T05:51:37.420Z,4.43
2018-03-23T05:54:05.712Z,4.37
2018-03-23T05:56:33.239Z,3.70
2018-03-23T05:59:00.778Z,4.90
2018-03-23T06:01:28.332Z,4.90
2018-03-23T06:03:55.856Z,4.37
2018-03-23T06:06:23.373Z,5.30
2018-03-23T06:08:50.904Z,5.03
2018-03-23T06:11:18.429Z,4.10
2018-03-23T06:13:46.342Z,3.83
2018-03-23T06:16:13.874Z,4.37
2018-03-23T06:18:41.648Z,3.70
2018-03-23T06:21:09.188Z,4.23
2018-03-23T06:23:36.733Z,4.47
2018-03-23T06:26:04.240Z,4.30
2018-03-23T06:28:31.759Z,3.70
2018-03-23T06:30:59.292Z,4.03
2018-03-23T06:33:26.808Z,3.70
2018-03-23T06:35:54.336Z,3.60
2018-03-23T06:38:21.904Z,3.67
2018-03-23T06:40:49.441Z,3.60
2018-03-23T06:43:17.728Z,3.83
2018-03-23T06:45:45.268Z,4.70
2018-03-23T06:48:12.797Z,3.30
2018-03-23T06:50:40.341Z,3.63
2018-03-23T06:53:07.848Z,3.10
2018-03-23T06:55:35.478Z,3.70
2018-03-23T06:58:03.792Z,3.40
2018-03-23T07:00:31.316Z,3.90
2018-03-23T07:02:58.854Z,3.23
2018-03-23T07:05:26.397Z,3.60
2018-03-23T07:07:53.931Z,3.00
2018-03-23T07:10:22.236Z,2.80
2018-03-23T07:12:49.740Z,3.50
2018-03-23T07:15:17.264Z,3.80
2018-03-23T07:17:44.772Z,4.20
2018-03-23T07:20:12.304Z,3.50
2018-03-23T07:22:39.815Z,3.70
2018-03-23T07:25:08.108Z,3.00
2018-03-23T07:27:36.499Z,3.70
2018-03-23T07:30:04.024Z,3.43
2018-03-23T07:32:31.546Z,3.93
2018-03-23T07:34:59.087Z,4.17
2018-03-23T07:37:26.596Z,4.53
2018-03-23T07:39:54.120Z,4.23
2018-03-23T07:42:21.649Z,4.60
2018-03-23T07:44:49.168Z,5.20
2018-03-23T07:47:16.701Z,4.87
2018-03-23T07:49:44.214Z,4.57
2018-03-23T07:52:12.652Z,3.57
2018-03-23T07:54:40.159Z,3.37
2018-03-23T07:57:08.444Z,4.10
2018-03-23T07:59:36.723Z,3.93
2018-03-23T08:02:05.102Z,5.10
2018-03-23T08:04:32.621Z,3.97
2018-03-23T08:07:00.171Z,4.13
2018-03-23T08:09:27.696Z,4.20
2018-03-23T08:11:55.226Z,3.77
2018-03-23T08:14:23.689Z,4.20
2018-03-23T08:16:51.220Z,4.10
2018-03-23T08:19:18.928Z,4.13
2018-03-23T08:21:47.223Z,4.23
2018-03-23T08:24:14.740Z,3.70
2018-03-23T08:26:42.276Z,4.20
2018-03-23T08:29:09.798Z,4.37
2018-03-23T08:31:37.336Z,4.60
2018-03-23T08:34:05.615Z,3.90
2018-03-23T08:36:33.912Z,4.40
2018-03-23T08:39:02.186Z,4.00
2018-03-23T08:41:29.717Z,3.93
2018-03-23T08:43:57.252Z,4.27
2018-03-23T08:46:24.788Z,4.63
2018-03-23T08:48:52.305Z,4.00
2018-03-23T08:51:19.838Z,3.77
2018-03-23T08:53:47.361Z,4.40
2018-03-23T08:56:14.896Z,3.90
2018-03-23T08:58:43.189Z,3.87
2018-03-23T09:01:10.704Z,5.27
2018-03-23T09:03:38.237Z,4.60
2018-03-23T09:06:05.752Z,3.90
2018-03-23T09:08:34.060Z,4.17
2018-03-23T09:11:01.572Z,4.90
2018-03-23T09:13:29.127Z,4.67
2018-03-23T09:15:56.648Z,4.10
2018-03-23T09:18:24.193Z,4.70
2018-03-23T09:20:51.722Z,4.60
2018-03-23T09:23:20.025Z,4.80
2018-03-23T09:25:47.537Z,5.40
2018-03-23T09:28:15.826Z,5.30
2018-03-23T09:30:43.343Z,5.93
2018-03-23T09:33:10.920Z,6.53
2018-03-23T09:35:38.408Z,6.67
2018-03-23T09:38:05.942Z,6.70
2018-03-23T09:40:33.468Z,7.07
2018-03-23T09:43:01.013Z,6.10
2018-03-23T09:45:29.305Z,7.40
2018-03-23T09:47:56.836Z,6.87
2018-03-23T09:50:24.391Z,7.60
2018-03-23T09:52:51.909Z,8.07
2018-03-23T09:55:19.426Z,7.53
2018-03-23T09:57:47.736Z,7.27
2018-03-23T10:00:15.253Z,7.03
2018-03-23T10:02:42.776Z,7.97
2018-03-23T10:05:10.301Z,7.93
2018-03-23T10:07:37.841Z,8.80
2018-03-23T10:10:06.145Z,7.80
2018-03-23T10:12:33.682Z,7.80
2018-03-23T10:15:01.970Z,8.13
2018-03-23T10:17:30.256Z,7.40
2018-03-23T10:19:57.780Z,8.60
2018-03-23T10:22:25.365Z,9.13
2018-03-23T10:24:52.902Z,8.80
2018-03-23T10:27:20.428Z,8.57
2018-03-23T10:29:47.953Z,7.73
2018-03-23T10:32:15.463Z,7.37
2018-03-23T10:34:42.995Z,8.13
2018-03-23T10:37:10.509Z,7.57
2018-03-23T10:39:38.817Z,8.30
2018-03-23T10:42:06.337Z,8.03
2018-03-23T10:44:33.868Z,8.07
2018-03-23T10:47:01.384Z,7.60
2018-03-23T10:49:29.705Z,8.40
2018-03-23T10:51:57.238Z,8.17
2018-03-23T10:54:24.771Z,8.23
2018-03-23T10:56:53.062Z,7.83
2018-03-23T10:59:21.370Z,8.50
2018-03-23T11:01:54.618Z,7.17
2018-03-23T11:04:22.919Z,7.00
2018-03-23T11:06:50.446Z,7.93
2018-03-23T11:09:17.972Z,8.37
2018-03-23T11:11:45.490Z,7.70
2018-03-23T11:14:13.796Z,8.20
2018-03-23T11:16:41.307Z,8.07
2018-03-23T11:19:08.847Z,7.47
2018-03-23T11:21:36.392Z,7.60
2018-03-23T11:24:04.044Z,7.10
2018-03-23T11:26:31.568Z,7.50
2018-03-23T11:28:59.869Z,8.10
2018-03-23T11:31:27.379Z,8.10
2018-03-23T11:36:24.833Z,8.20
2018-03-23T11:38:52.348Z,7.30
2018-03-23T11:41:20.642Z,7.53
2018-03-23T11:43:48.156Z,6.73
2018-03-23T11:46:15.698Z,7.73
2018-03-23T11:48:43.216Z,7.50
2018-03-23T11:51:10.753Z,7.67
2018-03-23T11:53:39.032Z,6.57
2018-03-23T11:56:07.351Z,7.27
2018-03-23T11:58:34.868Z,7.63
2018-03-23T12:01:03.164Z,7.50
2018-03-23T12:03:30.684Z,7.37
2018-03-23T12:05:58.204Z,7.03
2018-03-23T12:08:25.718Z,7.73
2018-03-23T12:10:54.012Z,7.70
2018-03-23T12:13:22.292Z,7.90
2018-03-23T12:15:49.824Z,7.00
2018-03-23T12:18:17.343Z,7.40
2018-03-23T12:20:44.881Z,7.80
2018-03-23T12:23:12.413Z,8.03
2018-03-23T12:25:40.712Z,8.20
2018-03-23T12:28:08.259Z,6.83
2018-03-23T12:30:35.815Z,6.57
2018-03-23T12:33:04.103Z,7.20
2018-03-23T12:35:31.636Z,7.07
2018-03-23T12:37:59.217Z,8.20
2018-03-23T12:40:26.697Z,6.80
2018-03-23T12:42:54.225Z,6.70
2018-03-23T12:45:22.528Z,6.07
2018-03-23T12:47:50.044Z,6.37
2018-03-23T12:50:17.575Z,6.00
2018-03-23T12:52:45.098Z,7.33
2018-03-23T12:55:13.382Z,6.40
2018-03-23T12:57:40.916Z,7.20
2018-03-23T13:00:09.201Z,7.00
2018-03-23T13:02:37.506Z,6.10
2018-03-23T13:05:05.071Z,7.00
2018-03-23T13:07:32.617Z,5.47
2018-03-23T13:10:00.136Z,6.70
2018-03-23T13:12:27.668Z,6.10
2018-03-23T13:14:55.192Z,6.07
2018-03-23T13:17:22.729Z,6.50
2018-03-23T13:19:51.009Z,6.40
2018-03-23T13:22:19.304Z,5.67
2018-03-23T13:24:46.846Z,5.93
2018-03-23T13:27:15.144Z,5.70
2018-03-23T13:29:42.666Z,6.30
2018-03-23T13:32:11.015Z,6.53
2018-03-23T13:34:38.538Z,6.00
2018-03-23T13:37:06.068Z,5.87
2018-03-23T13:39:33.581Z,5.03
2018-03-23T13:42:01.119Z,5.73
2018-03-23T13:44:28.660Z,6.17
2018-03-23T13:46:56.981Z,6.23
2018-03-23T13:49:24.533Z,6.20
2018-03-23T13:51:52.080Z,5.50
2018-03-23T13:54:19.612Z,6.10
2018-03-23T13:56:47.921Z,5.97
2018-03-23T13:59:21.013Z,5.40
2018-03-23T14:01:48.568Z,5.33
2018-03-23T14:04:16.092Z,5.03
2018-03-23T14:06:43.636Z,5.90
2018-03-23T14:09:11.151Z,5.87
2018-03-23T14:11:38.733Z,5.60
2018-03-23T14:14:06.990Z,5.63
2018-03-23T14:16:35.805Z,5.90
2018-03-23T14:19:03.357Z,6.10
2018-03-23T14:21:30.872Z,5.47
2018-03-23T14:23:59.159Z,5.73
2018-03-23T14:26:26.667Z,5.50
2018-03-23T14:28:54.269Z,5.27
2018-03-23T14:31:21.740Z,4.90
2018-03-23T14:33:49.277Z,5.73
2018-03-23T14:36:17.570Z,5.67
2018-03-23T14:38:45.883Z,5.57
2018-03-23T14:41:13.412Z,4.90
2018-03-23T14:43:40.946Z,5.33
2018-03-23T14:46:08.461Z,5.10
2018-03-23T14:48:35.992Z,5.20
2018-03-23T14:51:03.552Z,4.90
2018-03-23T14:53:31.853Z,4.63
2018-03-23T14:55:59.386Z,4.87
2018-03-23T14:58:27.166Z,5.73
2018-03-23T15:00:54.684Z,4.77
2018-03-23T15:03:22.231Z,4.80
2018-03-23T15:05:49.757Z,5.10
2018-03-23T15:08:17.306Z,4.50
2018-03-23T15:10:44.820Z,5.20
2018-03-23T15:13:12.360Z,5.57
2018-03-23T15:15:39.874Z,5.80
2018-03-23T15:18:07.410Z,5.27
2018-03-23T15:20:34.921Z,5.20
2018-03-23T15:23:02.465Z,5.93
2018-03-23T15:25:29.979Z,5.20
2018-03-23T15:27:57.531Z,5.60
2018-03-23T15:30:25.057Z,5.47
2018-03-23T15:32:52.577Z,5.50
2018-03-23T15:35:20.894Z,5.57
2018-03-23T15:37:48.400Z,5.37
2018-03-23T15:40:15.928Z,4.73
2018-03-23T15:42:43.451Z,5.87
2018-03-23T15:45:11.754Z,5.93
2018-03-23T15:47:39.303Z,5.50
2018-03-23T15:50:06.848Z,6.13
2018-03-23T15:52:34.375Z,4.83
2018-03-23T15:55:01.904Z,5.30
2018-03-23T15:57:29.411Z,5.40
2018-03-23T15:59:57.710Z,5.20
2018-03-23T16:02:25.229Z,5.87
2018-03-23T16:04:52.759Z,5.57
2018-03-23T16:07:20.281Z,5.90
2018-03-23T16:09:47.826Z,5.50
2018-03-23T16:12:16.100Z,5.83
2018-03-23T16:14:43.626Z,5.57
2018-03-23T16:17:11.904Z,5.43
2018-03-23T16:19:40.205Z,5.10
2018-03-23T16:22:07.725Z,5.17
2018-03-23T16:24:35.432Z,6.47
2018-03-23T16:27:02.946Z,4.97
2018-03-23T16:29:30.482Z,6.20
2018-03-23T16:31:58.087Z,5.90
2018-03-23T16:34:26.343Z,6.00
2018-03-23T16:36:53.873Z,5.60
2018-03-23T16:39:22.178Z,6.10
2018-03-23T16:41:49.695Z,5.90
2018-03-23T16:44:17.237Z,5.80
2018-03-23T16:46:44.758Z,4.97
2018-03-23T16:49:12.277Z,5.50
2018-03-23T16:51:40.575Z,6.10
2018-03-23T16:54:08.853Z,5.37
2018-03-23T16:56:37.156Z,6.50
2018-03-23T16:59:04.821Z,6.03
2018-03-23T17:01:32.366Z,7.20
2018-03-23T17:03:59.886Z,7.20
2018-03-23T17:06:27.420Z,6.47
2018-03-23T17:08:54.959Z,6.20
2018-03-23T17:11:22.496Z,6.60
2018-03-23T17:13:50.776Z,6.40
2018-03-23T17:16:18.310Z,6.90
2018-03-23T17:18:45.830Z,6.67
2018-03-23T17:21:13.356Z,7.00
2018-03-23T17:23:40.872Z,7.07
2018-03-23T17:26:08.417Z,6.53
2018-03-23T17:28:35.931Z,6.50
2018-03-23T17:31:04.285Z,6.27
2018-03-23T17:33:31.796Z,6.60
2018-03-23T17:35:59.328Z,6.73
2018-03-23T17:38:27.604Z,7.20
2018-03-23T17:40:55.925Z,7.90
2018-03-23T17:43:23.500Z,6.33
2018-03-23T17:45:51.032Z,6.80
2018-03-23T17:48:18.597Z,7.00
2018-03-23T17:50:46.122Z,6.63
2018-03-23T17:53:13.632Z,7.03
2018-03-23T17:55:41.174Z,7.40
2018-03-23T17:58:08.685Z,7.87
2018-03-23T18:00:36.217Z,7.90
2018-03-23T18:03:03.728Z,9.10
2018-03-23T18:05:32.076Z,7.80
2018-03-23T18:08:00.368Z,7.67
2018-03-23T18:10:27.887Z,8.17
2018-03-23T18:12:55.428Z,8.17
2018-03-23T18:15:22.938Z,8.00
2018-03-23T18:17:51.239Z,8.57
2018-03-23T18:20:18.760Z,9.00
2018-03-23T18:22:47.060Z,8.20
2018-03-23T18:25:14.573Z,7.43
2018-03-23T18:27:42.105Z,7.90
2018-03-23T18:30:09.620Z,10.30
2018-03-23T18:32:37.919Z,8.37
2018-03-23T18:35:05.467Z,9.00
2018-03-23T18:37:33.759Z,8.03
2018-03-23T18:40:01.282Z,8.40
2018-03-23T18:42:28.818Z,8.90
2018-03-23T18:44:56.341Z,7.97
2018-03-23T18:47:23.892Z,9.77
2018-03-23T18:49:51.401Z,8.50
2018-03-23T18:52:18.953Z,9.00
2018-03-23T18:54:46.492Z,9.23
2018-03-23T18:57:14.039Z,9.00
2018-03-23T18:59:41.560Z,8.67
2018-03-23T19:02:09.112Z,8.97
2018-03-23T19:04:36.624Z,8.70
2018-03-23T19:07:04.242Z,8.50
2018-03-23T19:09:31.760Z,9.60
2018-03-23T19:11:59.397Z,8.87
2018-03-23T19:14:26.925Z,9.20
2018-03-23T19:16:54.545Z,10.43
2018-03-23T19:19:22.073Z,10.10
2018-03-23T19:21:50.360Z,10.30
2018-03-23T19:24:17.905Z,9.00
2018-03-23T19:26:46.187Z,9.33
2018-03-23T19:29:13.728Z,10.40
2018-03-23T19:31:41.240Z,9.90
2018-03-23T19:34:08.830Z,9.10
2018-03-23T19:36:36.316Z,9.20
2018-03-23T19:39:04.612Z,10.50
2018-03-23T19:41:32.168Z,9.83
2018-03-23T19:44:00.444Z,10.23
2018-03-23T19:46:28.737Z,9.80
2018-03-23T19:48:56.272Z,10.40
2018-03-23T19:51:24.590Z,9.97
2018-03-23T19:53:52.127Z,11.30
2018-03-23T19:56:19.709Z,9.00
2018-03-23T19:58:47.270Z,10.10
2018-03-23T20:01:14.794Z,9.40
2018-03-23T20:03:43.092Z,10.77
2018-03-23T20:06:10.621Z,10.30
2018-03-23T20:08:38.148Z,10.40
2018-03-23T20:11:05.672Z,10.37
2018-03-23T20:13:33.235Z,10.40
2018-03-23T20:16:00.761Z,10.97
2018-03-23T20:18:28.297Z,11.13
2018-03-23T20:21:02.271Z,10.83
2018-03-23T20:23:29.817Z,10.87
2018-03-23T20:25:58.097Z,10.33
2018-03-23T20:28:31.310Z,10.50
2018-03-23T20:30:58.849Z,11.20
2018-03-23T20:33:26.386Z,10.90
2018-03-23T20:35:53.894Z,10.60
2018-03-23T20:38:21.428Z,10.57
2018-03-23T20:40:48.952Z,10.97
2018-03-23T20:43:17.246Z,9.97
2018-03-23T20:45:45.537Z,11.57
2018-03-23T20:48:13.845Z,9.67
2018-03-23T20:50:41.376Z,11.13
2018-03-23T20:53:09.652Z,11.30
2018-03-23T20:55:37.960Z,10.30
2018-03-23T20:58:05.498Z,10.30
2018-03-23T21:00:33.048Z,10.40
2018-03-23T21:03:01.342Z,9.60
2018-03-23T21:05:28.892Z,10.87
2018-03-23T21:07:57.187Z,10.57
2018-03-23T21:10:24.727Z,10.70
2018-03-23T21:12:53.005Z,11.57
2018-03-23T21:15:21.309Z,13.17
2018-03-23T21:17:48.849Z,10.27
2018-03-23T21:20:17.158Z,10.70
2018-03-23T21:22:44.677Z,9.93
2018-03-23T21:25:12.972Z,9.67
2018-03-23T21:27:40.503Z,10.73
2018-03-23T21:30:08.033Z,10.13
2018-03-23T21:32:35.549Z,11.10
2018-03-23T21:35:03.086Z,9.60
2018-03-23T21:37:31.373Z,9.40
2018-03-23T21:39:59.763Z,9.20
2018-03-23T21:42:28.045Z,10.70
2018-03-23T21:44:55.589Z,9.83
2018-03-23T21:47:23.888Z,10.10
2018-03-23T21:49:51.425Z,10.13
2018-03-23T21:52:19.717Z,10.50
2018-03-23T21:54:47.996Z,10.10
2018-03-23T21:57:16.300Z,9.93
2018-03-23T21:59:43.818Z,10.90
2018-03-23T22:02:12.112Z,10.20
2018-03-23T22:04:39.654Z,10.40
2018-03-23T22:07:07.952Z,10.10
2018-03-23T22:09:35.472Z,11.33
2018-03-23T22:12:03.005Z,9.53
2018-03-23T22:14:30.527Z,9.67
2018-03-23T22:16:58.829Z,9.60
2018-03-23T22:19:26.346Z,9.60
2018-03-23T22:21:54.654Z,9.63
2018-03-23T22:24:22.176Z,10.80
2018-03-23T22:26:49.708Z,9.13
2018-03-23T22:29:17.221Z,9.30
2018-03-23T22:31:45.517Z,9.00
2018-03-23T22:34:13.050Z,9.27
2018-03-23T22:36:41.362Z,10.10
2018-03-23T22:39:08.872Z,9.30
2018-03-23T22:41:36.404Z,10.00
2018-03-23T22:44:03.921Z,9.57
2018-03-23T22:46:31.476Z,9.90
2018-03-23T22:48:59.756Z,9.60
2018-03-23T22:51:28.043Z,9.40
2018-03-23T22:53:55.569Z,8.67
2018-03-23T22:56:23.093Z,8.97
2018-03-23T22:58:50.624Z,9.33
2018-03-23T23:01:18.159Z,9.10
2018-03-23T23:03:46.444Z,8.93
2018-03-23T23:06:14.744Z,9.70
2018-03-23T23:08:42.273Z,9.10
2018-03-23T23:11:10.558Z,9.30
2018-03-23T23:13:38.851Z,9.03
2018-03-23T23:16:06.366Z,9.20
2018-03-23T23:18:33.892Z,9.97
2018-03-23T23:21:01.422Z,9.70
2018-03-23T23:23:29.723Z,9.87
2018-03-23T23:25:57.235Z,8.83
2018-03-23T23:28:24.760Z,9.40
2018-03-23T23:30:52.281Z,10.47
2018-03-23T23:33:20.582Z,9.53
2018-03-23T23:35:48.102Z,10.33
2018-03-23T23:38:16.414Z,10.00
2018-03-23T23:40:43.928Z,8.77
2018-03-23T23:43:11.458Z,9.17
2018-03-23T23:45:38.971Z,9.20
2018-03-23T23:48:07.276Z,10.43
2018-03-23T23:50:34.796Z,9.60
2018-03-23T23:53:03.093Z,9.87
2018-03-23T23:55:30.618Z,9.70
2018-03-23T23:57:58.156Z,9.93
